NNT175 LICC-LIMJ
Flight info
| Callsign | NNT175 |
|---|---|
| Flight time | 1h 17m |
| Altitude | 36000 |
| Route | BUDIN DCT TAGEL DCT ELB DCT BETEN/N0370F180 M729 IDONA |
| Aircraft | B738/M-SDE2E3FGHIRWXY/LB1 |
Departure
| Time | 2026-04-24 18:57 |
|---|---|
| Airport | Catania-Fontanarossa Airport (LICC) |
Arrival
| Time | 2026-04-24 20:14 |
|---|---|
| Airport | Genoa Cristoforo Colombo Airport (LIMJ) |
| Time | Latitude | Longitude | Altitude | Speed | Heading |
|---|---|---|---|---|---|
| 2026-04-24 18:54 | 37.46672 | 15.05257 | 20 ft | 0 kts | 225° |
| 2026-04-24 18:55 | 37.46576 | 15.05236 | 21 ft | 15 kts | 125° |
| 2026-04-24 18:55 | 37.46567 | 15.05297 | 20 ft | 1 kts | 82° |
| 2026-04-24 18:55 | 37.46569 | 15.05309 | 20 ft | 1 kts | 82° |
| 2026-04-24 18:56 | 37.46570 | 15.05322 | 20 ft | 1 kts | 82° |
| 2026-04-24 18:56 | 37.46577 | 15.05382 | 20 ft | 31 kts | 82° |
| 2026-04-24 18:56 | 37.46631 | 15.06003 | 21 ft | 110 kts | 85° |
| 2026-04-24 18:56 | 37.46723 | 15.07245 | 48 ft | 172 kts | 84° |
| 2026-04-24 18:57 | 37.46838 | 15.08789 | 775 ft | 180 kts | 86° |
| 2026-04-24 18:57 | 37.46949 | 15.10435 | 1529 ft | 197 kts | 85° |
| 2026-04-24 18:57 | 37.47032 | 15.12144 | 2438 ft | 197 kts | 86° |
| 2026-04-24 18:57 | 37.47076 | 15.13853 | 3438 ft | 195 kts | 88° |
| 2026-04-24 18:58 | 37.47102 | 15.15639 | 3995 ft | 218 kts | 85° |
| 2026-04-24 18:58 | 37.47584 | 15.17559 | 4241 ft | 244 kts | 59° |
| 2026-04-24 18:58 | 37.48305 | 15.19592 | 4659 ft | 262 kts | 73° |
| 2026-04-24 18:58 | 37.48716 | 15.21860 | 5397 ft | 268 kts | 78° |
| 2026-04-24 18:59 | 37.49038 | 15.24184 | 6211 ft | 271 kts | 79° |
| 2026-04-24 18:59 | 37.49342 | 15.26537 | 6995 ft | 273 kts | 79° |
| 2026-04-24 18:59 | 37.49825 | 15.28844 | 7756 ft | 273 kts | 59° |
| 2026-04-24 18:59 | 37.51114 | 15.30532 | 8529 ft | 269 kts | 27° |
| 2026-04-24 19:00 | 37.52887 | 15.31272 | 9320 ft | 270 kts | 14° |
| 2026-04-24 19:00 | 37.54723 | 15.31849 | 10047 ft | 275 kts | 14° |
| 2026-04-24 19:00 | 37.56613 | 15.32436 | 10500 ft | 288 kts | 13° |
| 2026-04-24 19:00 | 37.58685 | 15.32574 | 10628 ft | 314 kts | 348° |
| 2026-04-24 19:01 | 37.60732 | 15.31398 | 10819 ft | 337 kts | 328° |
| 2026-04-24 19:01 | 37.62713 | 15.29631 | 10985 ft | 358 kts | 326° |
| 2026-04-24 19:01 | 37.64814 | 15.27794 | 11140 ft | 376 kts | 327° |
| 2026-04-24 19:01 | 37.67031 | 15.25958 | 11524 ft | 385 kts | 329° |
| 2026-04-24 19:02 | 37.68539 | 15.24761 | 11899 ft | 387 kts | 329° |
| 2026-04-24 19:02 | 37.71632 | 15.22406 | 12717 ft | 390 kts | 330° |
| 2026-04-24 19:02 | 37.73987 | 15.20673 | 13327 ft | 393 kts | 331° |
| 2026-04-24 19:02 | 37.76377 | 15.18944 | 13888 ft | 397 kts | 331° |
| 2026-04-24 19:03 | 37.78780 | 15.17221 | 14402 ft | 399 kts | 332° |
| 2026-04-24 19:03 | 37.81212 | 15.15487 | 14957 ft | 401 kts | 332° |
| 2026-04-24 19:03 | 37.83648 | 15.13752 | 15522 ft | 403 kts | 332° |
| 2026-04-24 19:03 | 37.86096 | 15.12008 | 16060 ft | 405 kts | 332° |
| 2026-04-24 19:04 | 37.88554 | 15.10256 | 16594 ft | 407 kts | 332° |
| 2026-04-24 19:04 | 37.91030 | 15.08490 | 17117 ft | 409 kts | 332° |
| 2026-04-24 19:04 | 37.93520 | 15.06712 | 17599 ft | 412 kts | 332° |
| 2026-04-24 19:04 | 37.96027 | 15.04919 | 18113 ft | 414 kts | 332° |
| 2026-04-24 19:05 | 37.98507 | 15.03145 | 18584 ft | 416 kts | 332° |
| 2026-04-24 19:05 | 38.01038 | 15.01332 | 18986 ft | 419 kts | 332° |
| 2026-04-24 19:05 | 38.03590 | 14.99503 | 19372 ft | 423 kts | 331° |
| 2026-04-24 19:05 | 38.06161 | 14.97658 | 19765 ft | 426 kts | 331° |
| 2026-04-24 19:06 | 38.08748 | 14.95800 | 20158 ft | 429 kts | 331° |
| 2026-04-24 19:06 | 38.11348 | 14.93931 | 20546 ft | 431 kts | 331° |
| 2026-04-24 19:06 | 38.13965 | 14.92049 | 20924 ft | 434 kts | 331° |
| 2026-04-24 19:06 | 38.16604 | 14.90149 | 21299 ft | 437 kts | 331° |
| 2026-04-24 19:07 | 38.19254 | 14.88240 | 21642 ft | 440 kts | 331° |
| 2026-04-24 19:07 | 38.21926 | 14.86313 | 21980 ft | 442 kts | 331° |
| 2026-04-24 19:07 | 38.23707 | 14.85029 | 22203 ft | 444 kts | 331° |
| 2026-04-24 19:07 | 38.27319 | 14.82420 | 22647 ft | 447 kts | 331° |
| 2026-04-24 19:08 | 38.30031 | 14.80459 | 22968 ft | 450 kts | 331° |
| 2026-04-24 19:08 | 38.32756 | 14.78487 | 23278 ft | 453 kts | 331° |
| 2026-04-24 19:08 | 38.35504 | 14.76496 | 23575 ft | 455 kts | 332° |
| 2026-04-24 19:08 | 38.38262 | 14.74497 | 23842 ft | 458 kts | 332° |
| 2026-04-24 19:09 | 38.41041 | 14.72481 | 24093 ft | 460 kts | 332° |
| 2026-04-24 19:09 | 38.43822 | 14.70462 | 24376 ft | 461 kts | 332° |
| 2026-04-24 19:09 | 38.46613 | 14.68433 | 24630 ft | 463 kts | 332° |
| 2026-04-24 19:09 | 38.49413 | 14.66396 | 24881 ft | 465 kts | 332° |
| 2026-04-24 19:10 | 38.52225 | 14.64348 | 25137 ft | 466 kts | 332° |
| 2026-04-24 19:10 | 38.55048 | 14.62291 | 25386 ft | 468 kts | 332° |
| 2026-04-24 19:10 | 38.57887 | 14.60220 | 25618 ft | 470 kts | 332° |
| 2026-04-24 19:10 | 38.60731 | 14.58143 | 25863 ft | 471 kts | 332° |
| 2026-04-24 19:11 | 38.63537 | 14.56092 | 26167 ft | 471 kts | 332° |
| 2026-04-24 19:11 | 38.66371 | 14.54018 | 26534 ft | 469 kts | 332° |
| 2026-04-24 19:11 | 38.69200 | 14.51947 | 26915 ft | 467 kts | 332° |
| 2026-04-24 19:11 | 38.72017 | 14.49882 | 27259 ft | 466 kts | 332° |
| 2026-04-24 19:12 | 38.74824 | 14.47823 | 27577 ft | 466 kts | 332° |
| 2026-04-24 19:12 | 38.77642 | 14.45754 | 27934 ft | 465 kts | 332° |
| 2026-04-24 19:12 | 38.80447 | 14.43693 | 28296 ft | 464 kts | 332° |
| 2026-04-24 19:12 | 38.83243 | 14.41636 | 28670 ft | 463 kts | 332° |
| 2026-04-24 19:13 | 38.85089 | 14.40277 | 28900 ft | 462 kts | 332° |
| 2026-04-24 19:13 | 38.88818 | 14.37530 | 29360 ft | 461 kts | 332° |
| 2026-04-24 19:13 | 38.91594 | 14.35482 | 29726 ft | 460 kts | 332° |
| 2026-04-24 19:13 | 38.94367 | 14.33435 | 30083 ft | 459 kts | 332° |
| 2026-04-24 19:14 | 38.97139 | 14.31387 | 30374 ft | 459 kts | 332° |
| 2026-04-24 19:14 | 38.99904 | 14.29342 | 30651 ft | 458 kts | 332° |
| 2026-04-24 19:14 | 39.02659 | 14.27302 | 30946 ft | 457 kts | 332° |
| 2026-04-24 19:14 | 39.05413 | 14.25262 | 31234 ft | 456 kts | 332° |
| 2026-04-24 19:15 | 39.08158 | 14.23226 | 31500 ft | 455 kts | 332° |
| 2026-04-24 19:15 | 39.10899 | 14.21192 | 31760 ft | 455 kts | 332° |
| 2026-04-24 19:15 | 39.13639 | 14.19156 | 32025 ft | 454 kts | 332° |
| 2026-04-24 19:15 | 39.16341 | 14.17147 | 32297 ft | 454 kts | 332° |
| 2026-04-24 19:16 | 39.21797 | 14.13084 | 32797 ft | 453 kts | 332° |
| 2026-04-24 19:16 | 39.24524 | 14.11051 | 33054 ft | 452 kts | 332° |
| 2026-04-24 19:16 | 39.27246 | 14.09020 | 33299 ft | 452 kts | 332° |
| 2026-04-24 19:17 | 39.29962 | 14.06991 | 33535 ft | 451 kts | 332° |
| 2026-04-24 19:17 | 39.32678 | 14.04960 | 33773 ft | 451 kts | 332° |
| 2026-04-24 19:17 | 39.35394 | 14.02927 | 34020 ft | 450 kts | 332° |
| 2026-04-24 19:17 | 39.38106 | 14.00896 | 34117 ft | 452 kts | 332° |
| 2026-04-24 19:18 | 39.43565 | 13.96802 | 34108 ft | 453 kts | 332° |
| 2026-04-24 19:18 | 39.48995 | 13.92721 | 34117 ft | 450 kts | 332° |
| 2026-04-24 19:19 | 39.54395 | 13.88655 | 34124 ft | 448 kts | 332° |
| 2026-04-24 19:19 | 39.59788 | 13.84588 | 34120 ft | 448 kts | 332° |
| 2026-04-24 19:20 | 39.65172 | 13.80521 | 34122 ft | 448 kts | 332° |
| 2026-04-24 19:20 | 39.70570 | 13.76436 | 34124 ft | 450 kts | 332° |
| 2026-04-24 19:21 | 39.75984 | 13.72331 | 34120 ft | 451 kts | 332° |
| 2026-04-24 19:21 | 39.81425 | 13.68197 | 34120 ft | 453 kts | 332° |
| 2026-04-24 19:22 | 39.86872 | 13.64051 | 34120 ft | 455 kts | 332° |
| 2026-04-24 19:22 | 39.92311 | 13.59903 | 34123 ft | 456 kts | 332° |
| 2026-04-24 19:23 | 39.97794 | 13.55713 | 34116 ft | 457 kts | 332° |
| 2026-04-24 19:23 | 40.03285 | 13.51508 | 34118 ft | 457 kts | 332° |
| 2026-04-24 19:24 | 40.08719 | 13.47341 | 34120 ft | 458 kts | 332° |
| 2026-04-24 19:24 | 40.14210 | 13.43123 | 34122 ft | 458 kts | 332° |
| 2026-04-24 19:25 | 40.19702 | 13.38895 | 34121 ft | 458 kts | 332° |
| 2026-04-24 19:25 | 40.25197 | 13.34658 | 34124 ft | 458 kts | 332° |
| 2026-04-24 19:26 | 40.30636 | 13.30299 | 34111 ft | 460 kts | 325° |
| 2026-04-24 19:26 | 40.35507 | 13.24818 | 34116 ft | 462 kts | 321° |
| 2026-04-24 19:27 | 40.40310 | 13.19200 | 34124 ft | 463 kts | 321° |
| 2026-04-24 19:27 | 40.45136 | 13.13615 | 34119 ft | 463 kts | 321° |
| 2026-04-24 19:28 | 40.49986 | 13.08046 | 34122 ft | 463 kts | 321° |
| 2026-04-24 19:28 | 40.54845 | 13.02473 | 34125 ft | 463 kts | 321° |
| 2026-04-24 19:29 | 40.62094 | 12.94135 | 34124 ft | 464 kts | 321° |
| 2026-04-24 19:30 | 40.66950 | 12.88534 | 34125 ft | 464 kts | 321° |
| 2026-04-24 19:30 | 40.71804 | 12.82923 | 34126 ft | 464 kts | 321° |
| 2026-04-24 19:31 | 40.76661 | 12.77298 | 34128 ft | 465 kts | 321° |
| 2026-04-24 19:31 | 40.81513 | 12.71666 | 34121 ft | 465 kts | 321° |
| 2026-04-24 19:32 | 40.86371 | 12.66016 | 34130 ft | 465 kts | 321° |
| 2026-04-24 19:32 | 40.90407 | 12.61313 | 34131 ft | 466 kts | 321° |
| 2026-04-24 19:33 | 40.95267 | 12.55641 | 34126 ft | 466 kts | 321° |
| 2026-04-24 19:33 | 41.00129 | 12.49954 | 34124 ft | 466 kts | 321° |
| 2026-04-24 19:34 | 41.04992 | 12.44254 | 34119 ft | 467 kts | 321° |
| 2026-04-24 19:34 | 41.09856 | 12.38541 | 34121 ft | 467 kts | 321° |
| 2026-04-24 19:35 | 41.14722 | 12.32814 | 34116 ft | 468 kts | 321° |
| 2026-04-24 19:35 | 41.19592 | 12.27070 | 34121 ft | 468 kts | 321° |
| 2026-04-24 19:36 | 41.24462 | 12.21314 | 34125 ft | 469 kts | 321° |
| 2026-04-24 19:36 | 41.29331 | 12.15548 | 34124 ft | 469 kts | 321° |
| 2026-04-24 19:37 | 41.34203 | 12.09766 | 34117 ft | 469 kts | 321° |
| 2026-04-24 19:37 | 41.39078 | 12.03968 | 34123 ft | 470 kts | 321° |
| 2026-04-24 19:38 | 41.43948 | 11.98164 | 34116 ft | 470 kts | 321° |
| 2026-04-24 19:38 | 41.48791 | 11.92381 | 34119 ft | 470 kts | 321° |
| 2026-04-24 19:39 | 41.53663 | 11.86550 | 34119 ft | 471 kts | 321° |
| 2026-04-24 19:39 | 41.58533 | 11.80708 | 34118 ft | 471 kts | 321° |
| 2026-04-24 19:40 | 41.63403 | 11.74855 | 34120 ft | 471 kts | 321° |
| 2026-04-24 19:40 | 41.68274 | 11.68989 | 34121 ft | 471 kts | 321° |
| 2026-04-24 19:41 | 41.73138 | 11.63118 | 34123 ft | 471 kts | 321° |
| 2026-04-24 19:41 | 41.78004 | 11.57232 | 34120 ft | 471 kts | 321° |
| 2026-04-24 19:42 | 41.82869 | 11.51336 | 34119 ft | 471 kts | 321° |
| 2026-04-24 19:42 | 41.87726 | 11.45435 | 34120 ft | 471 kts | 321° |
| 2026-04-24 19:43 | 41.92554 | 11.39558 | 34124 ft | 471 kts | 321° |
| 2026-04-24 19:43 | 41.97404 | 11.33641 | 34122 ft | 471 kts | 321° |
| 2026-04-24 19:44 | 42.02254 | 11.27712 | 34124 ft | 471 kts | 321° |
| 2026-04-24 19:44 | 42.07102 | 11.21772 | 34125 ft | 471 kts | 321° |
| 2026-04-24 19:45 | 42.11942 | 11.15829 | 34128 ft | 471 kts | 321° |
| 2026-04-24 19:45 | 42.16763 | 11.09897 | 34126 ft | 471 kts | 321° |
| 2026-04-24 19:46 | 42.21604 | 11.03926 | 34123 ft | 471 kts | 321° |
| 2026-04-24 19:46 | 42.26436 | 10.97956 | 34122 ft | 471 kts | 321° |
| 2026-04-24 19:47 | 42.31265 | 10.91974 | 34120 ft | 471 kts | 321° |
| 2026-04-24 19:47 | 42.36060 | 10.86022 | 34120 ft | 471 kts | 321° |
| 2026-04-24 19:48 | 42.40886 | 10.80019 | 34122 ft | 471 kts | 321° |
| 2026-04-24 19:48 | 42.48106 | 10.71012 | 34122 ft | 470 kts | 321° |
| 2026-04-24 19:49 | 42.57719 | 10.58975 | 34120 ft | 470 kts | 320° |
| 2026-04-24 19:50 | 42.67265 | 10.46968 | 34125 ft | 469 kts | 320° |
| 2026-04-24 19:51 | 42.74623 | 10.38280 | 34130 ft | 463 kts | 332° |
| 2026-04-24 19:52 | 42.83073 | 10.32029 | 34123 ft | 461 kts | 335° |
| 2026-04-24 19:52 | 42.88703 | 10.27833 | 34125 ft | 461 kts | 334° |
| 2026-04-24 19:53 | 42.94313 | 10.23593 | 34126 ft | 461 kts | 334° |
| 2026-04-24 19:53 | 42.99928 | 10.19327 | 33769 ft | 467 kts | 334° |
| 2026-04-24 19:54 | 43.02772 | 10.17164 | 33158 ft | 466 kts | 334° |
| 2026-04-24 19:54 | 43.05597 | 10.15012 | 32462 ft | 465 kts | 334° |
| 2026-04-24 19:54 | 43.08420 | 10.12860 | 31746 ft | 465 kts | 334° |
| 2026-04-24 19:54 | 43.11210 | 10.10732 | 31026 ft | 466 kts | 334° |
| 2026-04-24 19:55 | 43.13121 | 10.09272 | 30529 ft | 466 kts | 334° |
| 2026-04-24 19:55 | 43.16881 | 10.06401 | 29398 ft | 468 kts | 334° |
| 2026-04-24 19:55 | 43.19729 | 10.04222 | 28513 ft | 469 kts | 333° |
| 2026-04-24 19:55 | 43.22583 | 10.02036 | 27643 ft | 470 kts | 333° |
| 2026-04-24 19:56 | 43.25438 | 9.99846 | 26749 ft | 471 kts | 333° |
| 2026-04-24 19:56 | 43.28302 | 9.97648 | 25869 ft | 473 kts | 333° |
| 2026-04-24 19:56 | 43.31158 | 9.95452 | 25252 ft | 468 kts | 333° |
| 2026-04-24 19:56 | 43.33990 | 9.93272 | 24577 ft | 465 kts | 333° |
| 2026-04-24 19:57 | 43.36804 | 9.91104 | 23922 ft | 462 kts | 333° |
| 2026-04-24 19:57 | 43.39601 | 9.88948 | 23193 ft | 460 kts | 332° |
| 2026-04-24 19:57 | 43.42375 | 9.86806 | 22492 ft | 455 kts | 332° |
| 2026-04-24 19:57 | 43.45123 | 9.84683 | 21825 ft | 451 kts | 332° |
| 2026-04-24 19:58 | 43.47843 | 9.82579 | 21179 ft | 446 kts | 332° |
| 2026-04-24 19:58 | 43.50534 | 9.80496 | 20545 ft | 441 kts | 332° |
| 2026-04-24 19:58 | 43.53198 | 9.78432 | 19919 ft | 437 kts | 332° |
| 2026-04-24 19:58 | 43.55838 | 9.76385 | 19293 ft | 433 kts | 332° |
| 2026-04-24 19:59 | 43.58461 | 9.74355 | 18626 ft | 431 kts | 332° |
| 2026-04-24 19:59 | 43.61066 | 9.72340 | 17941 ft | 428 kts | 332° |
| 2026-04-24 19:59 | 43.63652 | 9.70338 | 17280 ft | 423 kts | 332° |
| 2026-04-24 19:59 | 43.66207 | 9.68359 | 16645 ft | 419 kts | 332° |
| 2026-04-24 20:00 | 43.68733 | 9.66398 | 16042 ft | 414 kts | 332° |
| 2026-04-24 20:00 | 43.71231 | 9.64458 | 15434 ft | 410 kts | 332° |
| 2026-04-24 20:00 | 43.73674 | 9.62559 | 14850 ft | 406 kts | 332° |
| 2026-04-24 20:00 | 43.76153 | 9.60629 | 14265 ft | 402 kts | 332° |
| 2026-04-24 20:01 | 43.78549 | 9.58762 | 13653 ft | 399 kts | 332° |
| 2026-04-24 20:01 | 43.80954 | 9.56883 | 13016 ft | 395 kts | 332° |
| 2026-04-24 20:01 | 43.83325 | 9.55025 | 12665 ft | 385 kts | 332° |
| 2026-04-24 20:01 | 43.85610 | 9.53233 | 12504 ft | 371 kts | 332° |
| 2026-04-24 20:02 | 43.87079 | 9.52079 | 12392 ft | 362 kts | 332° |
| 2026-04-24 20:02 | 43.89944 | 9.49830 | 12191 ft | 346 kts | 332° |
| 2026-04-24 20:02 | 43.92003 | 9.48212 | 12046 ft | 335 kts | 332° |
| 2026-04-24 20:02 | 43.93997 | 9.46645 | 11911 ft | 324 kts | 332° |
| 2026-04-24 20:03 | 43.95927 | 9.45127 | 11779 ft | 314 kts | 332° |
| 2026-04-24 20:03 | 43.97798 | 9.43636 | 11641 ft | 305 kts | 328° |
| 2026-04-24 20:03 | 43.99300 | 9.41628 | 11515 ft | 298 kts | 304° |
| 2026-04-24 20:03 | 44.00418 | 9.39266 | 11412 ft | 288 kts | 312° |
| 2026-04-24 20:04 | 44.02003 | 9.37656 | 11013 ft | 285 kts | 342° |
| 2026-04-24 20:04 | 44.03924 | 9.37026 | 10627 ft | 282 kts | 350° |
| 2026-04-24 20:04 | 44.05854 | 9.36486 | 10087 ft | 284 kts | 349° |
| 2026-04-24 20:04 | 44.07773 | 9.35946 | 9485 ft | 286 kts | 349° |
| 2026-04-24 20:05 | 44.09785 | 9.35386 | 8302 ft | 306 kts | 349° |
| 2026-04-24 20:05 | 44.11925 | 9.34806 | 7234 ft | 320 kts | 349° |
| 2026-04-24 20:05 | 44.14152 | 9.34223 | 6126 ft | 331 kts | 349° |
| 2026-04-24 20:05 | 44.16455 | 9.33661 | 5020 ft | 340 kts | 349° |
| 2026-04-24 20:06 | 44.18815 | 9.33133 | 3909 ft | 346 kts | 349° |
| 2026-04-24 20:06 | 44.21156 | 9.32613 | 3450 ft | 332 kts | 349° |
| 2026-04-24 20:06 | 44.23353 | 9.32059 | 3259 ft | 310 kts | 346° |
| 2026-04-24 20:06 | 44.25375 | 9.31347 | 3104 ft | 291 kts | 344° |
| 2026-04-24 20:07 | 44.26665 | 9.30865 | 3017 ft | 278 kts | 343° |
| 2026-04-24 20:07 | 44.29031 | 9.29972 | 2973 ft | 253 kts | 343° |
| 2026-04-24 20:07 | 44.30652 | 9.29126 | 2975 ft | 248 kts | 324° |
| 2026-04-24 20:07 | 44.31700 | 9.27293 | 3005 ft | 243 kts | 291° |
| 2026-04-24 20:08 | 44.32274 | 9.25167 | 2960 ft | 223 kts | 289° |
| 2026-04-24 20:08 | 44.32769 | 9.23220 | 2963 ft | 204 kts | 287° |
| 2026-04-24 20:08 | 44.33196 | 9.21364 | 2974 ft | 197 kts | 286° |
| 2026-04-24 20:08 | 44.33601 | 9.19524 | 3008 ft | 201 kts | 285° |
| 2026-04-24 20:09 | 44.34008 | 9.17651 | 2977 ft | 202 kts | 285° |
| 2026-04-24 20:09 | 44.34438 | 9.15797 | 3000 ft | 201 kts | 287° |
| 2026-04-24 20:09 | 44.34859 | 9.13985 | 2980 ft | 190 kts | 285° |
| 2026-04-24 20:09 | 44.35234 | 9.12276 | 2982 ft | 180 kts | 285° |
| 2026-04-24 20:10 | 44.35595 | 9.10598 | 2981 ft | 180 kts | 284° |
| 2026-04-24 20:10 | 44.35950 | 9.08932 | 2977 ft | 178 kts | 284° |
| 2026-04-24 20:10 | 44.36302 | 9.07278 | 2980 ft | 177 kts | 284° |
| 2026-04-24 20:10 | 44.36655 | 9.05621 | 2980 ft | 179 kts | 284° |
| 2026-04-24 20:11 | 44.37055 | 9.03955 | 2703 ft | 179 kts | 288° |
| 2026-04-24 20:11 | 44.37473 | 9.02346 | 2344 ft | 172 kts | 287° |
| 2026-04-24 20:11 | 44.37839 | 9.00761 | 1813 ft | 176 kts | 285° |
| 2026-04-24 20:11 | 44.38185 | 8.99085 | 1237 ft | 181 kts | 285° |
| 2026-04-24 20:12 | 44.38490 | 8.97398 | 812 ft | 177 kts | 286° |
| 2026-04-24 20:12 | 44.38836 | 8.95770 | 528 ft | 174 kts | 287° |
| 2026-04-24 20:12 | 44.39193 | 8.94175 | 289 ft | 170 kts | 287° |
| 2026-04-24 20:12 | 44.39530 | 8.92578 | 100 ft | 178 kts | 285° |
| 2026-04-24 20:13 | 44.39862 | 8.90962 | 298 ft | 173 kts | 286° |
| 2026-04-24 20:13 | 44.40193 | 8.89306 | 391 ft | 172 kts | 284° |
| 2026-04-24 20:13 | 44.40483 | 8.87748 | 214 ft | 164 kts | 284° |
| 2026-04-24 20:13 | 44.40791 | 8.86179 | 148 ft | 160 kts | 286° |
| 2026-04-24 20:14 | 44.41069 | 8.84767 | 20 ft | 139 kts | 284° |
| 2026-04-24 20:14 | 44.41253 | 8.83896 | 18 ft | 36 kts | 287° |
| 2026-04-24 20:14 | 44.41262 | 8.83853 | 18 ft | 2 kts | 287° |
| 2026-04-24 20:14 | 44.41285 | 8.83817 | 18 ft | 15 kts | 316° |
| 2026-04-24 20:15 | 44.41373 | 8.83738 | 18 ft | 0 kts | 1° |
| 2026-04-24 20:15 | 44.41407 | 8.83778 | 19 ft | 13 kts | 57° |
| 2026-04-24 20:15 | 44.41390 | 8.83963 | 18 ft | 26 kts | 105° |
| 2026-04-24 20:15 | 44.41331 | 8.84259 | 19 ft | 37 kts | 104° |
| 2026-04-24 20:16 | 44.41428 | 8.84597 | 19 ft | 41 kts | 37° |
| 2026-04-24 20:16 | 44.41528 | 8.84632 | 20 ft | 0 kts | 317° |